sensor_id;sensor_type;location;lat;lon;timestamp;pressure;altitude;pressure_sealevel;temperature;humidity
6829;BME280;17930;48.592;8.868;2022-12-13T00:02:06;96108.56;;;-8.35;100.00
6829;BME280;17930;48.592;8.868;2022-12-13T00:04:33;96101.84;;;-8.43;100.00
6829;BME280;17930;48.592;8.868;2022-12-13T00:06:59;96108.56;;;-8.35;100.00
6829;BME280;17930;48.592;8.868;2022-12-13T00:09:26;96100.56;;;-8.39;100.00
6829;BME280;17930;48.592;8.868;2022-12-13T00:11:53;96102.75;;;-8.36;100.00
6829;BME280;17930;48.592;8.868;2022-12-13T00:14:20;96106.44;;;-8.46;100.00
6829;BME280;17930;48.592;8.868;2022-12-13T00:16:49;96095.56;;;-8.47;100.00
6829;BME280;17930;48.592;8.868;2022-12-13T00:19:16;96106.25;;;-8.59;100.00
6829;BME280;17930;48.592;8.868;2022-12-13T00:21:43;96100.25;;;-8.58;100.00
6829;BME280;17930;48.592;8.868;2022-12-13T00:24:10;96105.91;;;-8.56;100.00
6829;BME280;17930;48.592;8.868;2022-12-13T00:26:37;96099.56;;;-8.52;100.00
6829;BME280;17930;48.592;8.868;2022-12-13T00:29:05;96100.84;;;-8.56;100.00
6829;BME280;17930;48.592;8.868;2022-12-13T00:31:33;96099.75;;;-8.54;100.00
6829;BME280;17930;48.592;8.868;2022-12-13T00:34:02;96097.69;;;-8.36;100.00
6829;BME280;17930;48.592;8.868;2022-12-13T00:36:29;96099.03;;;-8.48;100.00
6829;BME280;17930;48.592;8.868;2022-12-13T00:38:55;96098.63;;;-8.37;100.00
6829;BME280;17930;48.592;8.868;2022-12-13T00:41:29;96091.84;;;-8.36;100.00
6829;BME280;17930;48.592;8.868;2022-12-13T00:43:57;96089.59;;;-8.31;100.00
6829;BME280;17930;48.592;8.868;2022-12-13T00:46:25;96079.72;;;-8.41;100.00
6829;BME280;17930;48.592;8.868;2022-12-13T00:48:53;96082.06;;;-8.39;100.00
6829;BME280;17930;48.592;8.868;2022-12-13T00:51:26;96076.84;;;-8.38;100.00
6829;BME280;17930;48.592;8.868;2022-12-13T00:53:53;96065.06;;;-8.60;100.00
6829;BME280;17930;48.592;8.868;2022-12-13T00:56:22;96064.63;;;-8.63;100.00
6829;BME280;17930;48.592;8.868;2022-12-13T00:58:50;96073.16;;;-8.64;100.00
6829;BME280;17930;48.592;8.868;2022-12-13T01:01:20;96064.56;;;-8.55;100.00
6829;BME280;17930;48.592;8.868;2022-12-13T01:03:49;96062.25;;;-8.64;100.00
6829;BME280;17930;48.592;8.868;2022-12-13T01:06:18;96066.53;;;-8.65;100.00
6829;BME280;17930;48.592;8.868;2022-12-13T01:08:47;96060.88;;;-8.67;100.00
6829;BME280;17930;48.592;8.868;2022-12-13T01:11:14;96059.25;;;-8.60;100.00
6829;BME280;17930;48.592;8.868;2022-12-13T01:13:40;96053.91;;;-8.65;100.00
6829;BME280;17930;48.592;8.868;2022-12-13T01:16:10;96066.53;;;-8.65;100.00
6829;BME280;17930;48.592;8.868;2022-12-13T01:18:38;96063.84;;;-8.63;100.00
6829;BME280;17930;48.592;8.868;2022-12-13T01:21:06;96068.53;;;-8.61;100.00
6829;BME280;17930;48.592;8.868;2022-12-13T01:23:33;96062.72;;;-8.61;100.00
6829;BME280;17930;48.592;8.868;2022-12-13T01:26:02;96063.88;;;-8.35;100.00
6829;BME280;17930;48.592;8.868;2022-12-13T01:28:29;96060.22;;;-8.18;100.00
6829;BME280;17930;48.592;8.868;2022-12-13T01:30:58;96058.28;;;-8.02;100.00
6829;BME280;17930;48.592;8.868;2022-12-13T01:33:26;96058.13;;;-8.14;100.00
6829;BME280;17930;48.592;8.868;2022-12-13T01:35:53;96051.81;;;-8.04;100.00
6829;BME280;17930;48.592;8.868;2022-12-13T01:38:20;96048.69;;;-8.06;100.00
6829;BME280;17930;48.592;8.868;2022-12-13T01:40:49;96046.22;;;-8.00;100.00
6829;BME280;17930;48.592;8.868;2022-12-13T01:43:24;96050.16;;;-8.12;100.00
6829;BME280;17930;48.592;8.868;2022-12-13T01:45:51;96048.09;;;-8.22;100.00
6829;BME280;17930;48.592;8.868;2022-12-13T01:48:21;96044.47;;;-8.20;100.00
6829;BME280;17930;48.592;8.868;2022-12-13T01:50:52;96042.53;;;-8.18;100.00
6829;BME280;17930;48.592;8.868;2022-12-13T01:53:23;96034.41;;;-8.28;100.00
6829;BME280;17930;48.592;8.868;2022-12-13T01:55:54;96034.69;;;-8.37;100.00
6829;BME280;17930;48.592;8.868;2022-12-13T01:58:23;96026.50;;;-8.39;100.00
6829;BME280;17930;48.592;8.868;2022-12-13T02:00:50;96027.19;;;-8.31;100.00
6829;BME280;17930;48.592;8.868;2022-12-13T02:03:20;96025.47;;;-8.30;100.00
6829;BME280;17930;48.592;8.868;2022-12-13T02:05:52;96028.19;;;-8.32;100.00
6829;BME280;17930;48.592;8.868;2022-12-13T02:08:23;96030.16;;;-8.27;100.00
6829;BME280;17930;48.592;8.868;2022-12-13T02:10:51;96027.19;;;-8.16;100.00
6829;BME280;17930;48.592;8.868;2022-12-13T02:13:17;96026.00;;;-8.20;100.00
6829;BME280;17930;48.592;8.868;2022-12-13T02:15:52;96019.72;;;-8.24;100.00
6829;BME280;17930;48.592;8.868;2022-12-13T02:21:20;96019.84;;;-8.12;100.00
6829;BME280;17930;48.592;8.868;2022-12-13T02:24:24;96016.72;;;-8.13;100.00
6829;BME280;17930;48.592;8.868;2022-12-13T02:27:28;96022.59;;;-8.27;100.00
6829;BME280;17930;48.592;8.868;2022-12-13T02:30:17;96014.22;;;-8.42;100.00
6829;BME280;17930;48.592;8.868;2022-12-13T02:32:55;96015.97;;;-8.43;100.00
6829;BME280;17930;48.592;8.868;2022-12-13T02:35:27;96008.03;;;-8.54;100.00
6829;BME280;17930;48.592;8.868;2022-12-13T02:38:02;96011.34;;;-8.54;100.00
6829;BME280;17930;48.592;8.868;2022-12-13T02:40:36;96009.94;;;-8.70;100.00
6829;BME280;17930;48.592;8.868;2022-12-13T02:43:07;96014.28;;;-8.79;100.00
6829;BME280;17930;48.592;8.868;2022-12-13T02:45:42;96014.91;;;-8.77;100.00
6829;BME280;17930;48.592;8.868;2022-12-13T02:48:12;96007.69;;;-8.80;100.00
6829;BME280;17930;48.592;8.868;2022-12-13T02:50:41;96009.91;;;-8.85;100.00
6829;BME280;17930;48.592;8.868;2022-12-13T02:53:08;96012.50;;;-8.93;100.00
6829;BME280;17930;48.592;8.868;2022-12-13T02:55:37;96009.09;;;-9.00;100.00
6829;BME280;17930;48.592;8.868;2022-12-13T02:58:04;96003.44;;;-9.02;100.00
6829;BME280;17930;48.592;8.868;2022-12-13T03:00:40;96003.44;;;-9.02;100.00
6829;BME280;17930;48.592;8.868;2022-12-13T03:03:22;96002.22;;;-9.06;100.00
6829;BME280;17930;48.592;8.868;2022-12-13T03:05:56;95997.28;;;-8.99;100.00
6829;BME280;17930;48.592;8.868;2022-12-13T03:08:54;95996.81;;;-9.03;100.00
6829;BME280;17930;48.592;8.868;2022-12-13T03:11:24;95990.81;;;-9.02;100.00
6829;BME280;17930;48.592;8.868;2022-12-13T03:14:14;95981.19;;;-8.98;100.00
6829;BME280;17930;48.592;8.868;2022-12-13T03:16:47;95982.22;;;-8.93;100.00
6829;BME280;17930;48.592;8.868;2022-12-13T03:19:17;95983.44;;;-9.03;100.00
6829;BME280;17930;48.592;8.868;2022-12-13T03:21:45;95984.63;;;-9.13;100.00
6829;BME280;17930;48.592;8.868;2022-12-13T03:24:13;95983.75;;;-9.20;100.00
6829;BME280;17930;48.592;8.868;2022-12-13T03:26:42;95985.81;;;-9.24;100.00
6829;BME280;17930;48.592;8.868;2022-12-13T03:29:08;95989.19;;;-9.31;100.00
6829;BME280;17930;48.592;8.868;2022-12-13T03:31:35;95987.59;;;-9.32;100.00
6829;BME280;17930;48.592;8.868;2022-12-13T03:34:03;95983.88;;;-9.36;100.00
6829;BME280;17930;48.592;8.868;2022-12-13T03:36:30;95981.97;;;-9.34;100.00
6829;BME280;17930;48.592;8.868;2022-12-13T03:38:57;95983.53;;;-9.33;100.00
6829;BME280;17930;48.592;8.868;2022-12-13T03:41:25;95986.88;;;-9.41;100.00
6829;BME280;17930;48.592;8.868;2022-12-13T03:43:56;95982.91;;;-9.35;100.00
6829;BME280;17930;48.592;8.868;2022-12-13T03:46:22;95977.25;;;-9.37;100.00
6829;BME280;17930;48.592;8.868;2022-12-13T03:48:49;95978.50;;;-9.33;100.00
6829;BME280;17930;48.592;8.868;2022-12-13T03:51:17;95975.63;;;-9.53;100.00
6829;BME280;17930;48.592;8.868;2022-12-13T03:53:44;95968.34;;;-9.48;100.00
6829;BME280;17930;48.592;8.868;2022-12-13T03:56:11;95970.97;;;-9.41;100.00
6829;BME280;17930;48.592;8.868;2022-12-13T03:58:37;95967.72;;;-9.27;100.00
6829;BME280;17930;48.592;8.868;2022-12-13T04:01:08;95970.41;;;-9.29;100.00
6829;BME280;17930;48.592;8.868;2022-12-13T04:03:36;95970.63;;;-9.38;100.00
6829;BME280;17930;48.592;8.868;2022-12-13T04:06:05;95968.94;;;-9.23;100.00
6829;BME280;17930;48.592;8.868;2022-12-13T04:08:33;95966.34;;;-9.15;100.00
6829;BME280;17930;48.592;8.868;2022-12-13T04:11:00;95966.47;;;-9.31;100.00
6829;BME280;17930;48.592;8.868;2022-12-13T04:13:48;95975.91;;;-9.48;100.00
6829;BME280;17930;48.592;8.868;2022-12-13T04:16:14;95979.59;;;-9.58;100.00
6829;BME280;17930;48.592;8.868;2022-12-13T04:18:41;95976.44;;;-9.38;100.00
6829;BME280;17930;48.592;8.868;2022-12-13T04:21:08;95979.13;;;-9.17;100.00
6829;BME280;17930;48.592;8.868;2022-12-13T04:23:36;95976.69;;;-9.25;100.00
6829;BME280;17930;48.592;8.868;2022-12-13T04:26:03;95976.22;;;-9.28;100.00
6829;BME280;17930;48.592;8.868;2022-12-13T04:28:29;95973.03;;;-9.22;100.00
6829;BME280;17930;48.592;8.868;2022-12-13T04:30:56;95972.41;;;-9.24;100.00
6829;BME280;17930;48.592;8.868;2022-12-13T04:33:23;95972.75;;;-9.27;100.00
6829;BME280;17930;48.592;8.868;2022-12-13T04:35:50;95975.53;;;-9.22;100.00
6829;BME280;17930;48.592;8.868;2022-12-13T04:38:18;95974.50;;;-9.28;100.00
6829;BME280;17930;48.592;8.868;2022-12-13T04:40:46;95983.06;;;-9.14;100.00
6829;BME280;17930;48.592;8.868;2022-12-13T04:43:13;95974.06;;;-9.17;100.00
6829;BME280;17930;48.592;8.868;2022-12-13T04:45:40;95963.91;;;-9.23;100.00
6829;BME280;17930;48.592;8.868;2022-12-13T04:48:06;95965.75;;;-9.17;100.00
6829;BME280;17930;48.592;8.868;2022-12-13T04:50:33;95961.50;;;-9.03;100.00
6829;BME280;17930;48.592;8.868;2022-12-13T04:53:00;95963.81;;;-9.15;100.00
6829;BME280;17930;48.592;8.868;2022-12-13T04:55:27;95961.03;;;-9.20;100.00
6829;BME280;17930;48.592;8.868;2022-12-13T04:57:55;95961.09;;;-9.28;100.00
6829;BME280;17930;48.592;8.868;2022-12-13T05:00:22;95952.75;;;-9.29;100.00
6829;BME280;17930;48.592;8.868;2022-12-13T05:02:48;95958.97;;;-9.39;100.00
6829;BME280;17930;48.592;8.868;2022-12-13T05:05:15;95955.25;;;-9.43;100.00
6829;BME280;17930;48.592;8.868;2022-12-13T05:07:42;95951.00;;;-9.28;100.00
6829;BME280;17930;48.592;8.868;2022-12-13T05:10:09;95950.06;;;-9.27;100.00
6829;BME280;17930;48.592;8.868;2022-12-13T05:12:36;95952.34;;;-9.18;100.00
6829;BME280;17930;48.592;8.868;2022-12-13T05:15:05;95948.28;;;-9.05;100.00
6829;BME280;17930;48.592;8.868;2022-12-13T05:17:32;95947.91;;;-9.02;100.00
6829;BME280;17930;48.592;8.868;2022-12-13T05:19:59;95946.88;;;-8.93;100.00
6829;BME280;17930;48.592;8.868;2022-12-13T05:22:25;95943.50;;;-8.85;100.00
6829;BME280;17930;48.592;8.868;2022-12-13T05:24:52;95936.44;;;-8.90;100.00
6829;BME280;17930;48.592;8.868;2022-12-13T05:27:19;95942.88;;;-8.73;100.00
6829;BME280;17930;48.592;8.868;2022-12-13T05:29:45;95938.13;;;-8.82;100.00
6829;BME280;17930;48.592;8.868;2022-12-13T05:32:13;95945.34;;;-8.94;100.00
6829;BME280;17930;48.592;8.868;2022-12-13T05:34:40;95944.22;;;-8.77;100.00
6829;BME280;17930;48.592;8.868;2022-12-13T05:37:07;95938.53;;;-8.79;100.00
6829;BME280;17930;48.592;8.868;2022-12-13T05:39:33;95943.06;;;-8.89;100.00
6829;BME280;17930;48.592;8.868;2022-12-13T05:42:00;95934.34;;;-9.01;100.00
6829;BME280;17930;48.592;8.868;2022-12-13T05:44:27;95939.41;;;-9.01;100.00
6829;BME280;17930;48.592;8.868;2022-12-13T05:46:54;95941.81;;;-8.93;100.00
6829;BME280;17930;48.592;8.868;2022-12-13T05:49:21;95937.94;;;-8.95;100.00
6829;BME280;17930;48.592;8.868;2022-12-13T05:51:48;95934.88;;;-8.91;100.00
6829;BME280;17930;48.592;8.868;2022-12-13T05:54:15;95932.53;;;-8.92;100.00
6829;BME280;17930;48.592;8.868;2022-12-13T05:56:42;95927.38;;;-8.99;100.00
6829;BME280;17930;48.592;8.868;2022-12-13T05:59:08;95926.59;;;-9.13;100.00
6829;BME280;17930;48.592;8.868;2022-12-13T06:01:35;95934.25;;;-9.07;100.00
6829;BME280;17930;48.592;8.868;2022-12-13T06:04:02;95924.63;;;-9.04;100.00
6829;BME280;17930;48.592;8.868;2022-12-13T06:06:30;95927.84;;;-8.95;100.00
6829;BME280;17930;48.592;8.868;2022-12-13T06:08:57;95922.78;;;-8.95;100.00
6829;BME280;17930;48.592;8.868;2022-12-13T06:11:24;95920.44;;;-8.97;100.00
6829;BME280;17930;48.592;8.868;2022-12-13T06:13:51;95918.00;;;-9.05;100.00
6829;BME280;17930;48.592;8.868;2022-12-13T06:16:17;95931.22;;;-9.03;100.00
6829;BME280;17930;48.592;8.868;2022-12-13T06:18:44;95934.72;;;-9.04;100.00
6829;BME280;17930;48.592;8.868;2022-12-13T06:21:11;95934.34;;;-9.01;100.00
6829;BME280;17930;48.592;8.868;2022-12-13T06:23:39;95933.56;;;-9.01;100.00
6829;BME280;17930;48.592;8.868;2022-12-13T06:26:06;95924.97;;;-9.07;100.00
6829;BME280;17930;48.592;8.868;2022-12-13T06:28:33;95932.53;;;-9.07;100.00
6829;BME280;17930;48.592;8.868;2022-12-13T06:31:00;95930.19;;;-8.94;100.00
6829;BME280;17930;48.592;8.868;2022-12-13T06:33:26;95930.78;;;-8.77;100.00
6829;BME280;17930;48.592;8.868;2022-12-13T06:35:55;95930.72;;;-8.69;100.00
6829;BME280;17930;48.592;8.868;2022-12-13T06:38:23;95928.44;;;-8.79;100.00
6829;BME280;17930;48.592;8.868;2022-12-13T06:40:51;95930.97;;;-8.79;100.00
6829;BME280;17930;48.592;8.868;2022-12-13T06:43:18;95928.53;;;-8.72;100.00
6829;BME280;17930;48.592;8.868;2022-12-13T06:45:45;95939.06;;;-8.69;100.00
6829;BME280;17930;48.592;8.868;2022-12-13T06:48:11;95933.84;;;-8.67;100.00
6829;BME280;17930;48.592;8.868;2022-12-13T06:50:38;95935.16;;;-8.57;100.00
6829;BME280;17930;48.592;8.868;2022-12-13T06:53:05;95936.09;;;-8.58;100.00
6829;BME280;17930;48.592;8.868;2022-12-13T06:55:31;95944.97;;;-8.62;100.00
6829;BME280;17930;48.592;8.868;2022-12-13T06:58:01;95950.13;;;-8.56;100.00
6829;BME280;17930;48.592;8.868;2022-12-13T07:00:28;95942.03;;;-8.51;100.00
6829;BME280;17930;48.592;8.868;2022-12-13T07:02:57;95942.72;;;-8.57;100.00
6829;BME280;17930;48.592;8.868;2022-12-13T07:05:24;95945.34;;;-8.65;100.00
6829;BME280;17930;48.592;8.868;2022-12-13T07:07:52;95956.13;;;-8.71;100.00
6829;BME280;17930;48.592;8.868;2022-12-13T07:10:18;95957.25;;;-8.88;100.00
6829;BME280;17930;48.592;8.868;2022-12-13T07:12:45;95955.84;;;-8.90;100.00
6829;BME280;17930;48.592;8.868;2022-12-13T07:15:14;95960.13;;;-8.76;100.00
6829;BME280;17930;48.592;8.868;2022-12-13T07:17:40;95954.38;;;-8.70;100.00
6829;BME280;17930;48.592;8.868;2022-12-13T07:20:09;95962.41;;;-8.67;100.00
6829;BME280;17930;48.592;8.868;2022-12-13T07:22:38;95964.13;;;-8.53;100.00
6829;BME280;17930;48.592;8.868;2022-12-13T07:25:05;95960.47;;;-8.51;100.00
6829;BME280;17930;48.592;8.868;2022-12-13T07:27:33;95956.56;;;-8.53;100.00
6829;BME280;17930;48.592;8.868;2022-12-13T07:29:59;95960.25;;;-8.70;100.00
6829;BME280;17930;48.592;8.868;2022-12-13T07:32:27;95960.91;;;-8.90;100.00
6829;BME280;17930;48.592;8.868;2022-12-13T07:34:54;95966.75;;;-8.75;100.00
6829;BME280;17930;48.592;8.868;2022-12-13T07:37:21;95971.53;;;-8.66;100.00
6829;BME280;17930;48.592;8.868;2022-12-13T07:39:47;95976.34;;;-8.71;100.00
6829;BME280;17930;48.592;8.868;2022-12-13T07:42:14;95977.38;;;-8.51;100.00
6829;BME280;17930;48.592;8.868;2022-12-13T07:44:41;95979.28;;;-8.53;100.00
6829;BME280;17930;48.592;8.868;2022-12-13T07:47:07;95979.13;;;-8.37;100.00
6829;BME280;17930;48.592;8.868;2022-12-13T07:49:35;95984.94;;;-8.37;100.00
6829;BME280;17930;48.592;8.868;2022-12-13T07:52:02;95986.44;;;-8.42;100.00
6829;BME280;17930;48.592;8.868;2022-12-13T07:54:29;95978.78;;;-8.34;100.00
6829;BME280;17930;48.592;8.868;2022-12-13T07:56:56;95981.28;;;-8.20;100.00
6829;BME280;17930;48.592;8.868;2022-12-13T07:59:22;95976.94;;;-7.91;100.00
6829;BME280;17930;48.592;8.868;2022-12-13T08:01:49;95978.88;;;-7.72;100.00
6829;BME280;17930;48.592;8.868;2022-12-13T08:04:16;95969.63;;;-7.44;100.00
6829;BME280;17930;48.592;8.868;2022-12-13T08:06:44;95975.97;;;-7.27;100.00
6829;BME280;17930;48.592;8.868;2022-12-13T08:09:10;95964.41;;;-7.15;100.00
6829;BME280;17930;48.592;8.868;2022-12-13T08:11:38;95966.81;;;-7.08;100.00
6829;BME280;17930;48.592;8.868;2022-12-13T08:14:04;95971.53;;;-7.05;100.00
6829;BME280;17930;48.592;8.868;2022-12-13T08:16:32;95965.75;;;-6.92;100.00
6829;BME280;17930;48.592;8.868;2022-12-13T08:18:59;95967.19;;;-6.83;100.00
6829;BME280;17930;48.592;8.868;2022-12-13T08:21:25;95968.28;;;-6.65;100.00
6829;BME280;17930;48.592;8.868;2022-12-13T08:23:53;95962.31;;;-6.51;100.00
6829;BME280;17930;48.592;8.868;2022-12-13T08:26:21;95969.97;;;-6.45;100.00
6829;BME280;17930;48.592;8.868;2022-12-13T08:28:48;95968.63;;;-6.34;100.00
6829;BME280;17930;48.592;8.868;2022-12-13T08:31:14;95967.31;;;-6.30;100.00
6829;BME280;17930;48.592;8.868;2022-12-13T08:33:41;95972.00;;;-6.27;100.00
6829;BME280;17930;48.592;8.868;2022-12-13T08:36:12;95972.03;;;-6.14;100.00
6829;BME280;17930;48.592;8.868;2022-12-13T08:38:40;95977.28;;;-6.22;100.00
6829;BME280;17930;48.592;8.868;2022-12-13T08:41:09;95975.06;;;-5.98;100.00
6829;BME280;17930;48.592;8.868;2022-12-13T08:43:36;95967.88;;;-5.88;100.00
6829;BME280;17930;48.592;8.868;2022-12-13T08:46:04;95967.91;;;-5.69;100.00
6829;BME280;17930;48.592;8.868;2022-12-13T08:48:31;95968.28;;;-5.65;100.00
6829;BME280;17930;48.592;8.868;2022-12-13T08:51:01;95962.28;;;-5.52;100.00
6829;BME280;17930;48.592;8.868;2022-12-13T08:53:28;95965.19;;;-5.48;100.00
6829;BME280;17930;48.592;8.868;2022-12-13T08:55:59;95974.03;;;-5.38;100.00
6829;BME280;17930;48.592;8.868;2022-12-13T08:58:27;95973.84;;;-5.36;100.00
6829;BME280;17930;48.592;8.868;2022-12-13T09:00:54;95971.06;;;-5.41;100.00
6829;BME280;17930;48.592;8.868;2022-12-13T09:03:20;95967.97;;;-5.30;100.00
6829;BME280;17930;48.592;8.868;2022-12-13T09:05:47;95959.75;;;-5.39;100.00
6829;BME280;17930;48.592;8.868;2022-12-13T09:08:14;95967.94;;;-5.56;100.00
6829;BME280;17930;48.592;8.868;2022-12-13T09:10:41;95966.38;;;-5.63;100.00
6829;BME280;17930;48.592;8.868;2022-12-13T09:13:07;95963.66;;;-5.49;100.00
6829;BME280;17930;48.592;8.868;2022-12-13T09:15:37;95964.66;;;-5.44;100.00
6829;BME280;17930;48.592;8.868;2022-12-13T09:18:04;95961.72;;;-5.41;100.00
6829;BME280;17930;48.592;8.868;2022-12-13T09:20:31;95961.31;;;-5.44;100.00
6829;BME280;17930;48.592;8.868;2022-12-13T09:23:01;95966.38;;;-5.44;100.00
6829;BME280;17930;48.592;8.868;2022-12-13T09:25:29;95962.28;;;-5.39;100.00
6829;BME280;17930;48.592;8.868;2022-12-13T09:27:57;95978.50;;;-5.40;100.00
6829;BME280;17930;48.592;8.868;2022-12-13T09:30:26;95971.88;;;-5.21;100.00
6829;BME280;17930;48.592;8.868;2022-12-13T09:32:54;95973.66;;;-5.03;100.00
6829;BME280;17930;48.592;8.868;2022-12-13T09:35:21;95980.13;;;-4.94;100.00
6829;BME280;17930;48.592;8.868;2022-12-13T09:37:48;95976.19;;;-4.83;100.00
6829;BME280;17930;48.592;8.868;2022-12-13T09:40:19;95977.16;;;-4.78;100.00
6829;BME280;17930;48.592;8.868;2022-12-13T09:42:48;95975.81;;;-5.00;100.00
6829;BME280;17930;48.592;8.868;2022-12-13T09:45:18;95984.81;;;-4.91;100.00
6829;BME280;17930;48.592;8.868;2022-12-13T09:47:46;95972.28;;;-4.73;100.00
6829;BME280;17930;48.592;8.868;2022-12-13T09:50:21;95973.06;;;-4.53;100.00
6829;BME280;17930;48.592;8.868;2022-12-13T09:52:50;95969.09;;;-4.36;100.00
6829;BME280;17930;48.592;8.868;2022-12-13T09:55:19;95969.63;;;-4.21;100.00
6829;BME280;17930;48.592;8.868;2022-12-13T09:57:47;95969.03;;;-4.17;100.00
6829;BME280;17930;48.592;8.868;2022-12-13T10:00:17;95967.00;;;-3.96;100.00
6829;BME280;17930;48.592;8.868;2022-12-13T10:02:45;95962.25;;;-3.86;100.00
6829;BME280;17930;48.592;8.868;2022-12-13T10:05:29;95961.13;;;-3.90;100.00
6829;BME280;17930;48.592;8.868;2022-12-13T10:07:58;95962.03;;;-3.78;100.00
6829;BME280;17930;48.592;8.868;2022-12-13T10:10:26;95957.81;;;-3.53;100.00
6829;BME280;17930;48.592;8.868;2022-12-13T10:12:57;95952.22;;;-3.37;100.00
6829;BME280;17930;48.592;8.868;2022-12-13T10:15:30;95951.16;;;-3.23;100.00
6829;BME280;17930;48.592;8.868;2022-12-13T10:18:02;95944.63;;;-3.19;100.00
6829;BME280;17930;48.592;8.868;2022-12-13T10:20:31;95953.63;;;-3.10;100.00
6829;BME280;17930;48.592;8.868;2022-12-13T10:22:58;95955.41;;;-3.42;100.00
6829;BME280;17930;48.592;8.868;2022-12-13T10:25:45;95944.41;;;-3.42;100.00
6829;BME280;17930;48.592;8.868;2022-12-13T10:28:18;95936.75;;;-3.42;100.00
6829;BME280;17930;48.592;8.868;2022-12-13T10:30:49;95938.56;;;-3.49;100.00
6829;BME280;17930;48.592;8.868;2022-12-13T10:33:22;95947.84;;;-3.61;100.00
6829;BME280;17930;48.592;8.868;2022-12-13T10:36:12;95944.81;;;-3.45;100.00
6829;BME280;17930;48.592;8.868;2022-12-13T10:38:42;95957.22;;;-3.24;100.00
6829;BME280;17930;48.592;8.868;2022-12-13T10:41:31;95935.25;;;-3.19;100.00
6829;BME280;17930;48.592;8.868;2022-12-13T10:44:22;95930.09;;;-3.12;100.00
6829;BME280;17930;48.592;8.868;2022-12-13T10:47:03;95937.91;;;-3.07;100.00
6829;BME280;17930;48.592;8.868;2022-12-13T10:49:37;95933.63;;;-3.13;100.00
6829;BME280;17930;48.592;8.868;2022-12-13T10:52:19;95928.84;;;-3.04;100.00
6829;BME280;17930;48.592;8.868;2022-12-13T10:54:48;95923.28;;;-2.52;100.00
6829;BME280;17930;48.592;8.868;2022-12-13T10:57:16;95922.72;;;-2.36;100.00
6829;BME280;17930;48.592;8.868;2022-12-13T10:59:45;95923.66;;;-2.49;100.00
6829;BME280;17930;48.592;8.868;2022-12-13T11:02:34;95918.91;;;-2.27;100.00
6829;BME280;17930;48.592;8.868;2022-12-13T11:05:21;95919.03;;;-2.22;100.00
6829;BME280;17930;48.592;8.868;2022-12-13T11:07:50;95911.16;;;-2.21;100.00
6829;BME280;17930;48.592;8.868;2022-12-13T11:10:22;95916.66;;;-1.88;100.00
6829;BME280;17930;48.592;8.868;2022-12-13T11:12:50;95900.03;;;-1.50;100.00
6829;BME280;17930;48.592;8.868;2022-12-13T11:15:21;95902.06;;;-1.41;100.00
6829;BME280;17930;48.592;8.868;2022-12-13T11:17:51;95899.56;;;-1.58;100.00
6829;BME280;17930;48.592;8.868;2022-12-13T11:20:21;95895.78;;;-1.56;100.00
6829;BME280;17930;48.592;8.868;2022-12-13T11:22:58;95894.72;;;-1.37;100.00
6829;BME280;17930;48.592;8.868;2022-12-13T11:25:36;95888.94;;;-1.44;100.00
6829;BME280;17930;48.592;8.868;2022-12-13T11:28:13;95890.19;;;-1.76;100.00
6829;BME280;17930;48.592;8.868;2022-12-13T11:30:51;95881.63;;;-1.70;100.00
6829;BME280;17930;48.592;8.868;2022-12-13T11:33:28;95879.91;;;-1.58;100.00
6829;BME280;17930;48.592;8.868;2022-12-13T11:36:04;95876.66;;;-1.24;100.00
6829;BME280;17930;48.592;8.868;2022-12-13T11:38:41;95858.56;;;-0.77;100.00
6829;BME280;17930;48.592;8.868;2022-12-13T11:41:20;95869.44;;;-0.59;100.00
6829;BME280;17930;48.592;8.868;2022-12-13T11:43:52;95870.88;;;-0.52;100.00
6829;BME280;17930;48.592;8.868;2022-12-13T11:46:27;95875.75;;;-0.50;100.00
6829;BME280;17930;48.592;8.868;2022-12-13T11:48:59;95878.03;;;-0.14;100.00
6829;BME280;17930;48.592;8.868;2022-12-13T11:51:37;95872.59;;;0.21;100.00
6829;BME280;17930;48.592;8.868;2022-12-13T11:54:12;95872.81;;;0.64;100.00
6829;BME280;17930;48.592;8.868;2022-12-13T11:56:41;95872.19;;;0.57;100.00
6829;BME280;17930;48.592;8.868;2022-12-13T11:59:18;95863.03;;;0.61;100.00
6829;BME280;17930;48.592;8.868;2022-12-13T12:01:52;95863.66;;;0.68;100.00
6829;BME280;17930;48.592;8.868;2022-12-13T12:04:22;95867.06;;;0.73;100.00
6829;BME280;17930;48.592;8.868;2022-12-13T12:06:56;95855.25;;;0.89;100.00
6829;BME280;17930;48.592;8.868;2022-12-13T12:09:26;95856.63;;;1.29;100.00
6829;BME280;17930;48.592;8.868;2022-12-13T12:11:58;95857.50;;;0.69;100.00
6829;BME280;17930;48.592;8.868;2022-12-13T12:14:35;95849.47;;;1.68;100.00
6829;BME280;17930;48.592;8.868;2022-12-13T12:17:08;95854.00;;;1.83;100.00
6829;BME280;17930;48.592;8.868;2022-12-13T12:19:40;95854.59;;;1.90;100.00
6829;BME280;17930;48.592;8.868;2022-12-13T12:22:24;95858.28;;;1.99;100.00
6829;BME280;17930;48.592;8.868;2022-12-13T12:25:06;95855.84;;;1.28;100.00
6829;BME280;17930;48.592;8.868;2022-12-13T12:27:41;95852.63;;;1.75;100.00
6829;BME280;17930;48.592;8.868;2022-12-13T12:30:16;95848.13;;;1.87;100.00
6829;BME280;17930;48.592;8.868;2022-12-13T12:32:49;95840.13;;;1.84;100.00
6829;BME280;17930;48.592;8.868;2022-12-13T12:35:54;95853.66;;;1.37;100.00
6829;BME280;17930;48.592;8.868;2022-12-13T12:38:47;95841.06;;;1.35;100.00
6829;BME280;17930;48.592;8.868;2022-12-13T12:41:29;95843.44;;;1.20;100.00
6829;BME280;17930;48.592;8.868;2022-12-13T12:44:04;95840.56;;;1.01;100.00
6829;BME280;17930;48.592;8.868;2022-12-13T12:46:42;95836.44;;;1.00;100.00
6829;BME280;17930;48.592;8.868;2022-12-13T12:49:32;95839.69;;;1.11;100.00
6829;BME280;17930;48.592;8.868;2022-12-13T12:52:10;95834.72;;;1.05;100.00
6829;BME280;17930;48.592;8.868;2022-12-13T12:54:46;95824.31;;;0.79;100.00
6829;BME280;17930;48.592;8.868;2022-12-13T12:57:22;95823.38;;;0.68;100.00
6829;BME280;17930;48.592;8.868;2022-12-13T13:00:02;95830.06;;;0.53;100.00
6829;BME280;17930;48.592;8.868;2022-12-13T13:02:34;95831.28;;;0.50;100.00
6829;BME280;17930;48.592;8.868;2022-12-13T13:05:12;95823.38;;;0.68;100.00
6829;BME280;17930;48.592;8.868;2022-12-13T13:07:44;95820.72;;;0.63;100.00
6829;BME280;17930;48.592;8.868;2022-12-13T13:10:15;95831.00;;;0.63;100.00
6829;BME280;17930;48.592;8.868;2022-12-13T13:12:43;95830.59;;;0.11;100.00
6829;BME280;17930;48.592;8.868;2022-12-13T13:15:42;95839.97;;;0.05;100.00
6829;BME280;17930;48.592;8.868;2022-12-13T13:18:43;95832.94;;;0.12;100.00
6829;BME280;17930;48.592;8.868;2022-12-13T13:21:31;95822.16;;;0.10;100.00
6829;BME280;17930;48.592;8.868;2022-12-13T13:24:14;95818.31;;;-0.03;100.00